createdAt,value
2017-03-21T00:00:32.270Z,67.36
2017-03-21T00:02:45.019Z,67.46
2017-03-21T00:03:25.489Z,67.36
2017-03-21T00:04:05.971Z,67.65
2017-03-21T00:04:46.497Z,67.36
2017-03-21T00:05:26.951Z,67.36
2017-03-21T00:06:07.426Z,67.46
2017-03-21T00:06:47.926Z,67.46
2017-03-21T00:07:28.406Z,67.36
2017-03-21T00:08:08.893Z,67.46
2017-03-21T00:08:49.385Z,67.27
2017-03-21T00:09:29.873Z,67.36
2017-03-21T00:10:10.340Z,67.46
2017-03-21T00:10:50.826Z,67.27
2017-03-21T00:11:31.294Z,67.55
2017-03-21T00:12:11.796Z,67.74
2017-03-21T00:12:52.277Z,67.46
2017-03-21T00:13:32.761Z,67.46
2017-03-21T00:14:13.251Z,67.17
2017-03-21T00:14:53.753Z,67.17
2017-03-21T00:15:34.236Z,67.07
2017-03-21T00:16:14.727Z,67.46
2017-03-21T00:16:55.200Z,66.98
2017-03-21T00:17:35.679Z,67.07
2017-03-21T00:18:16.170Z,67.36
2017-03-21T00:18:56.665Z,67.17
2017-03-21T00:19:37.147Z,66.98
2017-03-21T00:20:17.648Z,66.88
2017-03-21T00:20:58.106Z,66.78
2017-03-21T00:21:38.589Z,66.78
2017-03-21T00:22:19.068Z,66.78
2017-03-21T00:22:59.558Z,66.6
2017-03-21T00:23:40.040Z,66.88
2017-03-21T00:24:20.535Z,66.6
2017-03-21T00:25:01.029Z,66.78
2017-03-21T00:25:41.523Z,66.41
2017-03-21T00:26:22.055Z,66.02
2017-03-21T00:27:02.538Z,65.83
2017-03-21T00:27:43.031Z,66.02
2017-03-21T00:28:23.526Z,65.93
2017-03-21T00:29:04.002Z,66.02
2017-03-21T00:29:44.439Z,66.12
2017-03-21T00:30:24.927Z,65.83
2017-03-21T00:31:05.378Z,65.83
2017-03-21T00:31:45.845Z,65.55
2017-03-21T00:32:26.332Z,65.74
2017-03-21T00:33:06.831Z,65.55
2017-03-21T00:33:47.328Z,65.55
2017-03-21T00:34:27.817Z,65.55
2017-03-21T00:35:08.303Z,65.64
2017-03-21T00:35:48.775Z,65.26
2017-03-21T00:36:29.249Z,65.64
2017-03-21T00:37:09.727Z,65.45
2017-03-21T00:37:50.216Z,65.55
2017-03-21T00:38:30.696Z,65.17
2017-03-21T00:39:11.173Z,65.45
2017-03-21T00:39:51.647Z,65.45
2017-03-21T00:40:32.116Z,65.64
2017-03-21T00:41:12.603Z,65.83
2017-03-21T00:41:53.087Z,65.55
2017-03-21T00:42:33.571Z,65.64
2017-03-21T00:43:14.046Z,65.83
2017-03-21T00:43:54.541Z,65.45
2017-03-21T00:44:35.041Z,65.55
2017-03-21T00:45:15.515Z,65.45
2017-03-21T00:45:56.010Z,65.26
2017-03-21T00:46:36.486Z,65.26
2017-03-21T00:47:16.963Z,65.26
2017-03-21T00:47:57.434Z,65.55
2017-03-21T00:48:37.916Z,65.45
2017-03-21T00:49:18.413Z,65.55
2017-03-21T00:49:58.892Z,65.55
2017-03-21T00:50:39.364Z,65.36
2017-03-21T00:51:19.855Z,65.36
2017-03-21T00:52:00.349Z,65.36
2017-03-21T00:52:40.837Z,65.26
2017-03-21T00:53:21.332Z,65.83
2017-03-21T00:54:01.822Z,64.97
2017-03-21T00:54:42.285Z,64.97
2017-03-21T00:55:22.790Z,65.07
2017-03-21T00:56:03.249Z,65.64
2017-03-21T00:56:43.726Z,65.36
2017-03-21T00:57:24.218Z,65.07
2017-03-21T00:58:04.699Z,65.07
2017-03-21T00:58:45.167Z,66.02
2017-03-21T00:59:25.657Z,65.45
2017-03-21T01:00:06.144Z,65.17
2017-03-21T01:00:46.653Z,65.26
2017-03-21T01:01:27.137Z,65.45
2017-03-21T01:02:07.627Z,65.64
2017-03-21T01:02:48.113Z,65.55
2017-03-21T01:03:28.572Z,65.83
2017-03-21T01:04:09.035Z,65.48
2017-03-21T01:04:49.520Z,65.64
2017-03-21T01:05:29.990Z,65.64
2017-03-21T01:06:10.481Z,65.45
2017-03-21T01:06:50.961Z,65.55
2017-03-21T01:07:31.443Z,65.26
2017-03-21T01:08:11.925Z,65.64
2017-03-21T01:08:52.422Z,65.45
2017-03-21T01:09:32.898Z,65.55
2017-03-21T01:10:13.368Z,65.93
2017-03-21T01:10:53.860Z,65.93
2017-03-21T01:11:34.357Z,65.83
2017-03-21T01:12:14.842Z,65.64
2017-03-21T01:12:55.328Z,65.45
2017-03-21T01:13:35.826Z,65.93
2017-03-21T01:14:16.315Z,65.83
2017-03-21T01:14:56.815Z,66.31
2017-03-21T01:15:37.303Z,66.22
2017-03-21T01:16:17.788Z,66.02
2017-03-21T01:16:58.282Z,66.31
2017-03-21T01:17:38.773Z,66.22
2017-03-21T01:18:19.254Z,66.22
2017-03-21T01:18:59.760Z,65.93
2017-03-21T01:19:40.328Z,66.12
2017-03-21T01:20:20.788Z,66.6
2017-03-21T01:21:01.275Z,66.41
2017-03-21T01:21:41.767Z,65.93
2017-03-21T01:22:22.262Z,66.02
2017-03-21T01:23:02.756Z,65.93
2017-03-21T01:23:43.240Z,66.02
2017-03-21T01:24:23.748Z,65.93
2017-03-21T01:25:04.234Z,65.83
2017-03-21T01:25:44.717Z,66.12
2017-03-21T01:26:25.205Z,66.12
2017-03-21T01:27:05.700Z,66.31
2017-03-21T01:27:46.190Z,66.5
2017-03-21T01:28:26.679Z,66.6
2017-03-21T01:29:07.130Z,66.6
2017-03-21T01:29:47.613Z,66.69
2017-03-21T01:30:28.098Z,66.6
2017-03-21T01:31:08.602Z,66.88
2017-03-21T01:31:49.060Z,66.69
2017-03-21T01:32:29.560Z,66.6
2017-03-21T01:33:10.048Z,66.69
2017-03-21T01:33:50.524Z,67.07
2017-03-21T01:34:31.051Z,67.07
2017-03-21T01:35:11.527Z,67.07
2017-03-21T01:35:52.004Z,67.07
2017-03-21T01:36:32.503Z,66.98
2017-03-21T01:37:12.988Z,67.27
2017-03-21T01:37:53.454Z,66.98
2017-03-21T01:38:33.944Z,67.17
2017-03-21T01:39:14.418Z,67.17
2017-03-21T01:39:54.927Z,67.07
2017-03-21T01:40:35.420Z,66.88
2017-03-21T01:41:15.904Z,67.17
2017-03-21T01:41:56.401Z,67.07
2017-03-21T01:42:36.888Z,66.78
2017-03-21T01:43:17.417Z,66.98
2017-03-21T01:43:57.873Z,67.36
2017-03-21T01:44:38.370Z,67.17
2017-03-21T01:45:18.821Z,67.07
2017-03-21T01:45:59.314Z,67.17
2017-03-21T01:46:39.782Z,67.46
2017-03-21T01:47:20.274Z,66.41
2017-03-21T01:48:00.796Z,67.46
2017-03-21T01:48:41.260Z,67.17
2017-03-21T01:49:21.752Z,67.36
2017-03-21T01:50:02.245Z,66.6
2017-03-21T01:50:42.716Z,66.69
2017-03-21T01:51:23.173Z,66.5
2017-03-21T01:52:03.635Z,66.02
2017-03-21T01:52:44.068Z,66.31
2017-03-21T01:53:24.520Z,66.41
2017-03-21T01:54:04.999Z,66.12
2017-03-21T01:54:45.467Z,66.22
2017-03-21T01:55:25.939Z,66.6
2017-03-21T01:56:06.393Z,66.22
2017-03-21T01:56:46.855Z,65.64
2017-03-21T01:57:27.321Z,66.12
2017-03-21T01:58:07.762Z,66.12
2017-03-21T01:58:48.230Z,65.74
2017-03-21T01:59:28.649Z,65.55
2017-03-21T02:00:09.109Z,65.64
2017-03-21T02:00:49.550Z,65.36
2017-03-21T02:01:30.017Z,65.17
2017-03-21T02:02:10.466Z,65.26
2017-03-21T02:02:50.902Z,65.26
2017-03-21T02:03:31.338Z,65.26
2017-03-21T02:05:18.815Z,65.36
2017-03-21T02:05:59.298Z,65.17
2017-03-21T02:06:39.778Z,65.45
2017-03-21T02:07:20.265Z,65.45
2017-03-21T02:08:00.756Z,65.26
2017-03-21T02:08:41.239Z,65.26
2017-03-21T02:09:21.719Z,65.36
2017-03-21T02:10:02.198Z,65.36
2017-03-21T02:10:42.691Z,65.26
2017-03-21T02:11:23.199Z,65.83
2017-03-21T02:12:03.685Z,65.45
2017-03-21T02:12:44.174Z,65.55
2017-03-21T02:13:24.649Z,65.45
2017-03-21T02:14:05.120Z,65.64
2017-03-21T02:14:45.595Z,65.26
2017-03-21T02:15:26.074Z,65.45
2017-03-21T02:16:06.561Z,65.26
2017-03-21T02:16:47.050Z,65.55
2017-03-21T02:17:27.534Z,65.64
2017-03-21T02:18:08.034Z,65.45
2017-03-21T02:18:48.512Z,65.45
2017-03-21T02:19:29.022Z,65.36
2017-03-21T02:20:09.512Z,65.74
2017-03-21T02:20:49.993Z,65.93
2017-03-21T02:21:30.484Z,65.93
2017-03-21T02:22:10.959Z,65.83
2017-03-21T02:22:51.447Z,65.64
2017-03-21T02:23:31.942Z,65.74
2017-03-21T02:24:12.442Z,65.74
2017-03-21T02:24:52.920Z,65.64
2017-03-21T02:25:33.407Z,65.93
2017-03-21T02:26:13.890Z,65.83
2017-03-21T02:26:54.352Z,66.12
2017-03-21T02:27:34.829Z,66.12
2017-03-21T02:28:15.317Z,66.22
2017-03-21T02:28:55.800Z,66.78
2017-03-21T02:29:36.265Z,66.6
2017-03-21T02:30:16.739Z,66.88
2017-03-21T02:30:57.170Z,66.6
2017-03-21T02:31:37.631Z,66.88
2017-03-21T02:32:18.119Z,66.78
2017-03-21T02:32:58.604Z,66.98
2017-03-21T02:33:39.091Z,67.36
2017-03-21T02:34:19.565Z,67.36
2017-03-21T02:35:00.053Z,67.65
2017-03-21T02:35:40.532Z,67.36
2017-03-21T02:36:21.018Z,68.03
2017-03-21T02:37:01.546Z,67.74
2017-03-21T02:37:42.036Z,68.6
2017-03-21T02:38:22.516Z,68.41
2017-03-21T02:39:03.006Z,68.41
2017-03-21T02:39:43.466Z,68.32
2017-03-21T02:40:23.955Z,68.7
2017-03-21T02:41:04.444Z,68.79
2017-03-21T02:41:44.919Z,68.98
2017-03-21T02:42:25.416Z,69.37
2017-03-21T02:43:05.899Z,69.27
2017-03-21T02:43:46.383Z,69.27
2017-03-21T02:44:26.860Z,69.46
2017-03-21T02:45:07.317Z,70.03
2017-03-21T02:45:47.796Z,69.56
2017-03-21T02:46:28.277Z,69.93
2017-03-21T02:47:08.765Z,70.13
2017-03-21T02:47:49.242Z,70.42
2017-03-21T02:48:29.724Z,70.22
2017-03-21T02:49:10.197Z,70.7
2017-03-21T02:49:50.665Z,70.95
2017-03-21T02:50:31.152Z,71.04
2017-03-21T02:51:11.644Z,70.67
2017-03-21T02:51:52.122Z,70.76
2017-03-21T02:52:32.628Z,71.04
2017-03-21T02:53:13.117Z,71.33
2017-03-21T02:53:53.600Z,71.14
2017-03-21T02:54:34.084Z,71.72
2017-03-21T02:55:14.562Z,71.52
2017-03-21T02:55:55.043Z,71.81
2017-03-21T02:56:35.534Z,71.81
2017-03-21T02:57:16.005Z,72.28
2017-03-21T02:57:56.464Z,72.09
2017-03-21T02:58:36.966Z,72
2017-03-21T02:59:17.459Z,72.19
2017-03-21T02:59:57.943Z,72
2017-03-21T03:00:38.433Z,72.67
2017-03-21T03:01:18.917Z,72.67
2017-03-21T03:01:59.405Z,72.76
2017-03-21T03:02:39.889Z,72.86
2017-03-21T03:03:20.387Z,73.43
2017-03-21T03:04:00.870Z,72.76
2017-03-21T03:04:41.346Z,72.96
2017-03-21T03:05:21.827Z,73.43
2017-03-21T03:06:02.314Z,73.52
2017-03-21T03:06:42.794Z,73.33
2017-03-21T03:07:23.274Z,73.43
2017-03-21T03:08:03.770Z,73.24
2017-03-21T03:08:44.262Z,73.33
2017-03-21T03:09:24.743Z,73.33
2017-03-21T03:10:05.229Z,73.52
2017-03-21T03:10:45.713Z,73.43
2017-03-21T03:11:26.190Z,74.01
2017-03-21T03:12:06.674Z,73.72
2017-03-21T03:12:47.158Z,73.91
2017-03-21T03:13:27.613Z,73.81
2017-03-21T03:14:08.090Z,73.62
2017-03-21T03:14:48.536Z,73.91
2017-03-21T03:15:29.030Z,73.62
2017-03-21T03:16:09.507Z,73.91
2017-03-21T03:16:49.988Z,73.62
2017-03-21T03:17:30.458Z,74.01
2017-03-21T03:18:10.951Z,73.62
2017-03-21T03:18:51.427Z,74.1
2017-03-21T03:19:31.919Z,73.81
2017-03-21T03:20:12.417Z,73.81
2017-03-21T03:20:52.913Z,73.72
2017-03-21T03:21:33.384Z,74.38
2017-03-21T03:22:13.862Z,74.29
2017-03-21T03:22:54.345Z,73.52
2017-03-21T03:23:34.834Z,73.81
2017-03-21T03:24:15.311Z,73.81
2017-03-21T03:26:33.106Z,73.62
2017-03-21T03:27:13.580Z,73.62
2017-03-21T03:27:54.074Z,73.62
2017-03-21T03:28:34.562Z,73.62
2017-03-21T03:29:15.044Z,73.91
2017-03-21T03:29:55.549Z,73.81
2017-03-21T03:30:36.019Z,73.72
2017-03-21T03:31:16.510Z,74.29
2017-03-21T03:31:57.002Z,74.01
2017-03-21T03:32:37.496Z,73.91
2017-03-21T03:33:17.968Z,73.72
2017-03-21T03:33:58.454Z,74.1
2017-03-21T03:34:38.947Z,74.19
2017-03-21T03:35:19.422Z,73.62
2017-03-21T03:35:59.923Z,73.91
2017-03-21T03:36:40.415Z,73.33
2017-03-21T03:37:20.910Z,73.52
2017-03-21T03:38:01.399Z,73.14
2017-03-21T03:38:41.901Z,73.33
2017-03-21T03:39:22.387Z,73.14
2017-03-21T03:40:02.879Z,73.33
2017-03-21T03:40:43.370Z,73.52
2017-03-21T03:41:23.852Z,73.14
2017-03-21T03:42:04.354Z,73.33
2017-03-21T03:42:44.843Z,73.43
2017-03-21T03:43:25.379Z,73.43
2017-03-21T03:45:43.153Z,73.52
2017-03-21T03:46:23.627Z,73.24
2017-03-21T03:47:04.123Z,73.62
2017-03-21T03:47:44.610Z,73.43
2017-03-21T03:48:25.104Z,73.24
2017-03-21T03:49:05.588Z,73.24
2017-03-21T03:49:46.085Z,73.33
2017-03-21T03:50:26.557Z,73.33
2017-03-21T03:51:07.076Z,72.86
2017-03-21T03:51:47.545Z,73.52
2017-03-21T03:52:28.034Z,73.14
2017-03-21T03:53:08.518Z,73.43
2017-03-21T03:53:48.994Z,73.05
2017-03-21T03:54:29.471Z,73.43
2017-03-21T03:55:09.961Z,73.24
2017-03-21T03:55:50.436Z,73.43
2017-03-21T03:56:30.922Z,73.72
2017-03-21T03:57:11.409Z,73.24
2017-03-21T03:57:51.889Z,73.24
2017-03-21T03:58:32.358Z,73.33
2017-03-21T03:59:12.855Z,73.05
2017-03-21T03:59:53.347Z,73.43
2017-03-21T04:01:50.962Z,73.24
2017-03-21T04:02:31.422Z,73.33
2017-03-21T04:03:11.907Z,73.24
2017-03-21T04:03:52.404Z,73.33
2017-03-21T04:04:32.902Z,73.05
2017-03-21T04:05:13.387Z,73.33
2017-03-21T04:05:53.912Z,72.96
2017-03-21T04:06:34.360Z,72.86
2017-03-21T04:07:14.832Z,73.14
2017-03-21T04:07:55.329Z,73.24
2017-03-21T04:08:35.820Z,73.62
2017-03-21T04:09:16.309Z,72.76
2017-03-21T04:09:56.801Z,72.96
2017-03-21T04:10:37.290Z,73.33
2017-03-21T04:11:17.775Z,73.43
2017-03-21T04:11:58.251Z,73.52
2017-03-21T04:12:38.746Z,73.14
2017-03-21T04:13:19.231Z,73.52
2017-03-21T04:13:59.724Z,73.43
2017-03-21T04:14:40.221Z,73.52
2017-03-21T04:15:20.694Z,73.52
2017-03-21T04:17:18.329Z,73.24
2017-03-21T04:17:58.799Z,73.43
2017-03-21T04:18:39.275Z,73.81
2017-03-21T04:19:19.764Z,73.81
2017-03-21T04:20:00.253Z,73.43
2017-03-21T04:20:40.756Z,73.24
2017-03-21T04:21:21.244Z,73.14
2017-03-21T04:22:01.737Z,74.01
2017-03-21T04:22:42.225Z,73.05
2017-03-21T04:23:22.715Z,73.52
2017-03-21T04:24:03.199Z,74.19
2017-03-21T04:24:43.679Z,74.19
2017-03-21T04:25:24.168Z,73.33
2017-03-21T04:26:04.653Z,73.43
2017-03-21T04:26:45.152Z,73.33
2017-03-21T04:27:25.620Z,74.01
2017-03-21T04:28:06.143Z,73.24
2017-03-21T04:28:46.595Z,73.52
2017-03-21T04:29:27.053Z,72.86
2017-03-21T04:30:07.534Z,73.33
2017-03-21T04:30:48.025Z,73.05
2017-03-21T04:31:28.521Z,73.24
2017-03-21T04:32:09.003Z,73.14
2017-03-21T04:32:49.474Z,73.33
2017-03-21T04:33:29.974Z,73.24
2017-03-21T04:34:10.464Z,73.52
2017-03-21T04:34:50.942Z,73.33
2017-03-21T04:35:31.387Z,73.52
2017-03-21T04:36:11.873Z,73.14
2017-03-21T04:36:52.367Z,72.86
2017-03-21T04:37:32.855Z,73.43
2017-03-21T04:38:13.354Z,73.24
2017-03-21T04:38:53.827Z,73.52
2017-03-21T04:39:34.345Z,73.62
2017-03-21T04:40:14.821Z,73.24
2017-03-21T04:40:55.305Z,73.24
2017-03-21T04:41:35.771Z,73.62
2017-03-21T04:42:16.228Z,73.43
2017-03-21T04:42:56.719Z,73.24
2017-03-21T04:43:37.217Z,73.43
2017-03-21T04:44:17.717Z,73.24
2017-03-21T04:44:58.200Z,73.33
2017-03-21T04:45:38.694Z,72.96
2017-03-21T04:46:19.180Z,72.86
2017-03-21T04:46:59.644Z,72.86
2017-03-21T04:47:40.137Z,72.86
2017-03-21T04:48:20.632Z,73.24
2017-03-21T04:49:01.127Z,73.33
2017-03-21T04:49:41.618Z,73.52
2017-03-21T04:50:22.091Z,73.24
2017-03-21T04:51:02.570Z,73.24
2017-03-21T04:51:43.064Z,73.52
2017-03-21T04:52:23.555Z,73.24
2017-03-21T04:53:04.039Z,73.52
2017-03-21T04:53:44.534Z,73.33
2017-03-21T04:54:25.022Z,73.33
2017-03-21T04:55:05.522Z,73.33
2017-03-21T04:55:45.985Z,73.33
2017-03-21T04:56:26.479Z,73.43
2017-03-21T04:57:06.962Z,73.33
2017-03-21T04:57:47.462Z,73.52
2017-03-21T04:58:27.955Z,73.62
2017-03-21T04:59:08.442Z,73.62
2017-03-21T04:59:48.912Z,73.52
2017-03-21T05:00:29.387Z,73.43
2017-03-21T05:01:09.889Z,73.52
2017-03-21T05:01:50.368Z,73.62
2017-03-21T05:02:30.846Z,73.52
2017-03-21T05:03:11.326Z,73.43
2017-03-21T05:03:51.831Z,73.43
2017-03-21T05:04:32.310Z,73.24
2017-03-21T05:05:12.798Z,73.33
2017-03-21T05:05:53.302Z,73.62
2017-03-21T05:06:33.792Z,73.24
2017-03-21T05:07:14.265Z,73.14
2017-03-21T05:07:54.746Z,73.91
2017-03-21T05:08:35.239Z,73.72
2017-03-21T05:09:15.727Z,73.81
2017-03-21T05:09:56.208Z,73.81
2017-03-21T05:10:36.679Z,73.72
2017-03-21T05:11:17.176Z,73.91
2017-03-21T05:11:57.659Z,73.81
2017-03-21T05:12:38.126Z,73.81
2017-03-21T05:13:18.608Z,73.72
2017-03-21T05:13:59.080Z,73.72
2017-03-21T05:16:16.873Z,73.72
2017-03-21T05:16:57.355Z,73.81
2017-03-21T05:17:37.839Z,74.29
2017-03-21T05:18:18.327Z,74.01
2017-03-21T05:18:58.803Z,74.57
2017-03-21T05:19:39.293Z,74.1
2017-03-21T05:20:19.776Z,74.1
2017-03-21T05:21:00.275Z,74.29
2017-03-21T05:21:40.767Z,74.48
2017-03-21T05:22:21.230Z,74.1
2017-03-21T05:23:01.714Z,74.01
2017-03-21T05:23:42.205Z,73.91
2017-03-21T05:24:22.679Z,74.19
2017-03-21T05:25:03.160Z,74.29
2017-03-21T05:25:43.627Z,74.38
2017-03-21T05:26:24.178Z,74.48
2017-03-21T05:27:04.663Z,74.48
2017-03-21T05:27:45.126Z,74.57
2017-03-21T05:28:25.593Z,74.48
2017-03-21T05:29:06.073Z,74.19
2017-03-21T05:30:58.611Z,74.1
2017-03-21T05:31:39.068Z,74.38
2017-03-21T05:32:19.591Z,74.48
2017-03-21T05:33:00.079Z,74.38
2017-03-21T05:33:40.587Z,74.48
2017-03-21T05:34:21.078Z,74.48
2017-03-21T05:35:01.577Z,75.24
2017-03-21T05:35:42.034Z,74.48
2017-03-21T05:36:22.546Z,74.1
2017-03-21T05:37:03.052Z,74.67
2017-03-21T05:37:43.649Z,74.38
2017-03-21T05:38:24.131Z,74.29
2017-03-21T05:39:04.621Z,74.67
2017-03-21T05:39:45.134Z,74.38
2017-03-21T05:40:25.602Z,74.1
2017-03-21T05:41:06.104Z,74.38
2017-03-21T05:41:46.601Z,74.48
2017-03-21T05:42:27.087Z,74.29
2017-03-21T05:43:07.581Z,74.38
2017-03-21T05:43:48.071Z,74.38
2017-03-21T05:44:28.564Z,74.38
2017-03-21T05:45:09.053Z,74.38
2017-03-21T05:45:49.549Z,74.29
2017-03-21T05:46:30.017Z,74.48
2017-03-21T05:47:10.500Z,74.38
2017-03-21T05:47:51.001Z,74.96
2017-03-21T05:48:31.461Z,74.38
2017-03-21T05:49:11.939Z,74.38
2017-03-21T05:49:52.433Z,74.48
2017-03-21T05:50:32.946Z,74.48
2017-03-21T05:51:13.383Z,74.1
2017-03-21T05:51:53.879Z,74.57
2017-03-21T05:52:34.365Z,74.57
2017-03-21T05:53:14.848Z,74.48
2017-03-21T05:53:55.337Z,74.38
2017-03-21T05:54:35.812Z,74.1
2017-03-21T05:55:16.301Z,74.48
2017-03-21T05:55:56.804Z,74.48
2017-03-21T05:56:37.294Z,74.29
2017-03-21T05:57:17.779Z,74.29
2017-03-21T05:57:58.259Z,74.1
2017-03-21T05:58:38.740Z,73.81
2017-03-21T05:59:19.225Z,74.1
2017-03-21T05:59:59.716Z,74.38
2017-03-21T06:00:40.182Z,74.1
2017-03-21T06:01:20.606Z,74.29
2017-03-21T06:02:01.076Z,74.29
2017-03-21T06:02:41.553Z,73.91
2017-03-21T06:03:22.017Z,74.29
2017-03-21T06:04:02.477Z,74.38
2017-03-21T06:04:42.978Z,73.72
2017-03-21T06:05:23.442Z,73.72
2017-03-21T06:06:03.945Z,73.72
2017-03-21T06:06:44.417Z,73.72
2017-03-21T06:07:24.906Z,73.72
2017-03-21T06:08:05.393Z,74.01
2017-03-21T06:08:45.875Z,73.72
2017-03-21T06:09:26.355Z,73.81
2017-03-21T06:10:06.824Z,73.72
2017-03-21T06:10:47.318Z,74.01
2017-03-21T06:11:27.812Z,73.81
2017-03-21T06:12:08.288Z,73.81
2017-03-21T06:12:48.750Z,73.62
2017-03-21T06:13:29.236Z,73.62
2017-03-21T06:14:09.748Z,74.19
2017-03-21T06:14:50.227Z,74.1
2017-03-21T06:15:30.686Z,73.81
2017-03-21T06:16:11.188Z,73.81
2017-03-21T06:16:51.697Z,73.72
2017-03-21T06:17:32.184Z,74.38
2017-03-21T06:18:12.668Z,73.72
2017-03-21T06:18:53.131Z,73.72
2017-03-21T06:19:33.589Z,73.91
2017-03-21T06:20:14.075Z,73.81
2017-03-21T06:20:54.564Z,74.1
2017-03-21T06:21:35.087Z,73.81
2017-03-21T06:22:15.562Z,74.1
2017-03-21T06:22:56.042Z,73.81
2017-03-21T06:23:36.544Z,73.24
2017-03-21T06:24:17.026Z,74.19
2017-03-21T06:24:57.497Z,73.62
2017-03-21T06:25:37.965Z,74.1
2017-03-21T06:26:18.434Z,73.43
2017-03-21T06:26:58.930Z,73.52
2017-03-21T06:27:39.420Z,73.24
2017-03-21T06:28:19.894Z,73.91
2017-03-21T06:29:00.370Z,73.24
2017-03-21T06:29:40.853Z,73.33
2017-03-21T06:30:21.348Z,73.24
2017-03-21T06:31:01.841Z,73.66
2017-03-21T06:31:42.371Z,73.56
2017-03-21T06:32:22.879Z,73.47
2017-03-21T06:33:03.365Z,73.14
2017-03-21T06:33:43.849Z,73.24
2017-03-21T06:34:24.330Z,73.18
2017-03-21T06:35:04.839Z,73.52
2017-03-21T06:35:45.330Z,73.56
2017-03-21T06:36:25.816Z,73.08
2017-03-21T06:37:06.310Z,72.99
2017-03-21T06:37:46.804Z,73.08
2017-03-21T06:38:27.273Z,72.61
2017-03-21T06:39:07.740Z,72.89
2017-03-21T06:39:48.225Z,72.99
2017-03-21T06:40:28.715Z,72.99
2017-03-21T06:41:09.206Z,72.89
2017-03-21T06:41:49.669Z,72.8
2017-03-21T06:42:30.128Z,72.71
2017-03-21T06:43:10.594Z,72.99
2017-03-21T06:45:28.402Z,72.89
2017-03-21T06:46:08.899Z,72.99
2017-03-21T06:46:49.380Z,72.99
2017-03-21T06:47:29.877Z,72.61
2017-03-21T06:48:10.377Z,72.61
2017-03-21T06:48:50.884Z,72.71
2017-03-21T06:49:31.350Z,72.61
2017-03-21T06:50:11.826Z,72.89
2017-03-21T06:50:52.310Z,73.18
2017-03-21T06:51:32.813Z,72.61
2017-03-21T06:52:13.330Z,72.99
2017-03-21T06:52:53.806Z,72.99
2017-03-21T06:53:34.292Z,72.71
2017-03-21T06:54:14.822Z,72.61
2017-03-21T06:54:55.273Z,72.8
2017-03-21T06:55:35.761Z,72.13
2017-03-21T06:56:16.206Z,72.32
2017-03-21T06:56:56.697Z,72.03
2017-03-21T06:57:37.180Z,72.13
2017-03-21T06:58:17.681Z,71.84
2017-03-21T06:58:58.154Z,72.23
2017-03-21T06:59:38.629Z,72.13
2017-03-21T07:00:19.130Z,72.13
2017-03-21T07:00:59.607Z,72.23
2017-03-21T07:01:40.094Z,72.13
2017-03-21T07:02:20.587Z,72.61
2017-03-21T07:03:01.083Z,71.94
2017-03-21T07:03:41.622Z,72.03
2017-03-21T07:04:22.114Z,72.42
2017-03-21T07:05:02.604Z,71.94
2017-03-21T07:05:43.078Z,71.94
2017-03-21T07:06:23.569Z,71.21
2017-03-21T07:07:04.043Z,71.75
2017-03-21T07:07:44.558Z,71.66
2017-03-21T07:08:25.043Z,71.94
2017-03-21T07:10:22.663Z,72.03
2017-03-21T07:11:03.125Z,72.13
2017-03-21T07:11:43.603Z,72.23
2017-03-21T07:12:24.084Z,72.03
2017-03-21T07:13:04.604Z,71.94
2017-03-21T07:13:45.050Z,71.94
2017-03-21T07:14:25.516Z,72.03
2017-03-21T07:15:06.009Z,72.03
2017-03-21T07:15:46.502Z,71.94
2017-03-21T07:16:27.004Z,72.23
2017-03-21T07:17:07.488Z,72.13
2017-03-21T07:17:48.539Z,72.13
2017-03-21T07:18:28.846Z,72.32
2017-03-21T07:19:09.560Z,72.32
2017-03-21T07:19:50.150Z,72.45
2017-03-21T07:20:30.620Z,71.98
2017-03-21T07:21:11.081Z,72.55
2017-03-21T07:23:29.147Z,71.59
2017-03-21T07:24:09.700Z,71.88
2017-03-21T07:24:50.169Z,71.88
2017-03-21T07:25:30.631Z,71.5
2017-03-21T07:26:11.094Z,71.12
2017-03-21T07:26:51.567Z,71.21
2017-03-21T07:27:32.050Z,70.92
2017-03-21T07:28:12.529Z,71.5
2017-03-21T07:28:53.022Z,71.21
2017-03-21T07:29:33.536Z,71.69
2017-03-21T07:30:14.020Z,71.21
2017-03-21T07:30:54.498Z,71.21
2017-03-21T07:31:34.994Z,71.31
2017-03-21T07:32:15.475Z,71.21
2017-03-21T07:32:55.952Z,70.54
2017-03-21T07:33:36.437Z,70.45
2017-03-21T07:34:16.949Z,70.45
2017-03-21T07:34:57.439Z,70.26
2017-03-21T07:35:37.933Z,70.45
2017-03-21T07:36:18.422Z,70.73
2017-03-21T07:36:58.937Z,70.26
2017-03-21T07:37:39.441Z,70.92
2017-03-21T07:38:19.936Z,70.45
2017-03-21T07:39:00.491Z,70.64
2017-03-21T07:39:40.993Z,70.54
2017-03-21T07:40:21.447Z,70.64
2017-03-21T07:41:01.951Z,70.45
2017-03-21T07:41:42.526Z,70.92
2017-03-21T07:42:23.043Z,70.16
2017-03-21T07:43:03.519Z,70.26
2017-03-21T07:43:44.022Z,70.73
2017-03-21T07:44:24.496Z,71.12
2017-03-21T07:45:04.973Z,70.92
2017-03-21T07:45:45.481Z,70.36
2017-03-21T07:46:25.966Z,70.16
2017-03-21T07:47:06.452Z,70.54
2017-03-21T07:47:46.960Z,70.92
2017-03-21T07:48:27.445Z,70.54
2017-03-21T07:49:07.930Z,70.36
2017-03-21T07:49:48.463Z,70.73
2017-03-21T07:50:28.935Z,70.64
2017-03-21T07:51:09.458Z,70.36
2017-03-21T07:51:49.906Z,70.92
2017-03-21T07:52:30.399Z,70.54
2017-03-21T07:53:10.867Z,70.26
2017-03-21T07:53:51.339Z,70.73
2017-03-21T07:54:31.832Z,71.02
2017-03-21T07:55:12.325Z,70.73
2017-03-21T07:55:52.828Z,71.02
2017-03-21T07:56:33.321Z,70.64
2017-03-21T07:57:13.806Z,71.02
2017-03-21T07:57:54.296Z,71.31
2017-03-21T07:58:34.799Z,71.12
2017-03-21T07:59:15.904Z,71.21
2017-03-21T07:59:56.383Z,70.83
2017-03-21T08:00:36.840Z,70.92
2017-03-21T08:01:17.342Z,71.31
2017-03-21T08:01:57.850Z,71.02
2017-03-21T08:02:38.360Z,71.12
2017-03-21T08:03:18.903Z,71.31
2017-03-21T08:03:59.411Z,71.31
2017-03-21T08:04:39.947Z,71.12
2017-03-21T08:05:20.463Z,71.31
2017-03-21T08:06:00.959Z,70.73
2017-03-21T08:06:41.460Z,70.26
2017-03-21T08:07:21.960Z,70.1
2017-03-21T08:08:02.424Z,70.2
2017-03-21T08:08:42.898Z,70.29
2017-03-21T08:09:23.390Z,70.58
2017-03-21T08:10:03.892Z,70.2
2017-03-21T08:12:16.629Z,70.29
2017-03-21T08:12:57.214Z,70.29
2017-03-21T08:13:37.705Z,69.82
2017-03-21T08:14:18.177Z,69.62
2017-03-21T08:14:58.664Z,69.05
2017-03-21T08:15:39.239Z,69.24
2017-03-21T08:16:19.714Z,69.72
2017-03-21T08:17:00.235Z,69.62
2017-03-21T08:17:40.705Z,69.82
2017-03-21T08:18:21.184Z,70.16
2017-03-21T08:19:01.658Z,70.26
2017-03-21T08:19:42.147Z,70.73
2017-03-21T08:20:22.607Z,70.26
2017-03-21T08:21:03.103Z,70.1
2017-03-21T08:21:43.582Z,70.01
2017-03-21T08:22:24.073Z,69.43
2017-03-21T08:23:04.563Z,69.82
2017-03-21T08:23:45.082Z,69.43
2017-03-21T08:24:25.560Z,69.97
2017-03-21T08:25:06.081Z,70.39
2017-03-21T08:25:46.547Z,70.73
2017-03-21T08:26:27.030Z,69.97
2017-03-21T08:27:07.734Z,70.29
2017-03-21T08:27:48.227Z,69.91
2017-03-21T08:28:28.741Z,69.82
2017-03-21T08:29:09.199Z,69.82
2017-03-21T08:29:49.728Z,69.43
2017-03-21T08:30:30.208Z,69.72
2017-03-21T08:31:10.653Z,69.62
2017-03-21T08:31:51.111Z,69.34
2017-03-21T08:32:31.627Z,69.15
2017-03-21T08:33:12.086Z,69.05
2017-03-21T08:33:53.078Z,69.15
2017-03-21T08:34:33.566Z,68.96
2017-03-21T08:35:14.234Z,69.24
2017-03-21T08:35:54.675Z,69.05
2017-03-21T08:36:35.175Z,68.86
2017-03-21T08:37:15.642Z,68.96
2017-03-21T08:37:56.154Z,69.34
2017-03-21T08:38:36.623Z,69.05
2017-03-21T08:39:17.100Z,69.43
2017-03-21T08:39:57.622Z,70.1
2017-03-21T08:40:38.104Z,69.62
2017-03-21T08:41:18.630Z,69.91
2017-03-21T08:41:59.101Z,69.82
2017-03-21T08:42:39.636Z,69.97
2017-03-21T08:44:32.200Z,69.43
2017-03-21T08:45:12.689Z,68.96
2017-03-21T08:45:53.179Z,68.86
2017-03-21T08:46:33.669Z,68.76
2017-03-21T08:47:14.142Z,68.7
2017-03-21T08:47:54.714Z,68.41
2017-03-21T08:48:35.173Z,68.67
2017-03-21T08:49:15.647Z,68.86
2017-03-21T08:49:56.106Z,68.76
2017-03-21T08:50:36.612Z,68.76
2017-03-21T08:51:17.093Z,68.61
2017-03-21T08:51:57.498Z,68.51
2017-03-21T08:52:37.934Z,68.32
2017-03-21T08:53:18.405Z,68.04
2017-03-21T08:53:58.883Z,67.94
2017-03-21T08:54:39.380Z,67.94
2017-03-21T08:55:19.875Z,67.65
2017-03-21T08:56:00.359Z,68.04
2017-03-21T08:56:40.827Z,67.75
2017-03-21T08:57:21.312Z,67.65
2017-03-21T08:58:01.789Z,67.75
2017-03-21T08:58:42.272Z,68
2017-03-21T08:59:22.760Z,68.61
2017-03-21T09:00:03.242Z,68.48
2017-03-21T09:00:43.731Z,68.96
2017-03-21T09:01:24.205Z,68.8